Time;durP1;ratioP1;P1;durP2;ratioP2;P2;SDS_P1;SDS_P2;PMS_P1;PMS_P2;Temp;Humidity;BMP_temperature;BMP_pressure;BME280_temperature;BME280_humidity;BME280_pressure;Samples;Min_cycle;Max_cycle;Signal;HPM_P1;HPM_P2
2023/11/17 00:01:11;;;;;;;9.70;5.50;;;;;;;9.27;57.71;99985.73;108132;1253;73806;-67
2023/11/17 00:03:39;;;;;;;7.40;5.20;;;;;;;9.24;57.73;99988.98;107948;1253;69528;-67
2023/11/17 00:06:07;;;;;;;7.40;5.10;;;;;;;9.21;58.03;99994.36;107952;1253;71552;-67
2023/11/17 00:08:35;;;;;;;7.30;5.20;;;;;;;9.30;57.79;99995.10;108009;1253;60262;-67
2023/11/17 00:11:03;;;;;;;7.80;6.00;;;;;;;9.29;57.44;100005.30;107969;1253;60400;-67
2023/11/17 00:13:30;;;;;;;7.60;5.40;;;;;;;9.37;57.32;100003.80;107999;1253;72709;-67
2023/11/17 00:15:58;;;;;;;11.10;6.10;;;;;;;9.41;56.99;100004.54;107980;1253;70122;-67
2023/11/17 00:18:25;;;;;;;8.50;5.70;;;;;;;9.38;57.13;100007.77;107976;1253;73228;-67
2023/11/17 00:20:54;;;;;;;9.00;5.60;;;;;;;9.39;57.05;100003.38;107946;1253;61010;-68
2023/11/17 00:23:21;;;;;;;9.90;6.50;;;;;;;9.29;57.27;100001.61;107964;1253;59206;-67
2023/11/17 00:25:49;;;;;;;9.70;6.10;;;;;;;9.37;57.05;100000.83;107958;1253;72374;-68
2023/11/17 00:28:16;;;;;;;9.90;6.10;;;;;;;9.45;56.87;100006.70;107969;1253;68895;-68
2023/11/17 00:30:44;;;;;;;11.80;6.70;;;;;;;9.36;56.92;100003.46;107985;1253;72652;-66
2023/11/17 00:33:12;;;;;;;8.90;5.80;;;;;;;9.35;57.12;100006.14;108141;1253;60547;-67
2023/11/17 00:35:40;;;;;;;8.40;5.60;;;;;;;9.37;57.04;100001.17;107944;1253;60410;-67
2023/11/17 00:38:07;;;;;;;7.60;5.50;;;;;;;9.39;56.99;100003.36;107967;1253;76129;-67
2023/11/17 00:40:35;;;;;;;8.30;6.50;;;;;;;9.37;57.21;99999.56;108054;1258;70160;-67
2023/11/17 00:43:03;;;;;;;9.20;6.80;;;;;;;9.35;57.09;99998.94;108005;1256;70742;-67
2023/11/17 00:45:31;;;;;;;11.80;7.20;;;;;;;9.33;57.31;100001.83;107957;1253;61265;-67
2023/11/17 00:47:59;;;;;;;10.40;6.60;;;;;;;9.25;57.52;99999.98;108006;1253;60336;-68
2023/11/17 00:50:29;;;;;;;9.10;6.60;;;;;;;9.26;57.61;99998.55;107889;1253;73774;-68
2023/11/17 00:53:04;;;;;;;9.70;6.50;;;;;;;9.24;57.57;100002.66;107955;1253;70053;-66
2023/11/17 00:55:32;;;;;;;12.20;7.00;;;;;;;9.08;57.99;100001.79;107950;1256;72733;-68
2023/11/17 00:57:59;;;;;;;11.00;6.80;;;;;;;9.02;58.17;100007.21;107869;1253;60298;-67
2023/11/17 01:00:27;;;;;;;9.40;7.20;;;;;;;9.12;57.91;100011.98;108093;1253;60267;-67
2023/11/17 01:02:55;;;;;;;10.40;6.50;;;;;;;9.09;57.91;100019.82;107889;1258;73773;-67
2023/11/17 01:05:23;;;;;;;11.10;6.80;;;;;;;9.04;58.10;100025.73;107992;1253;69198;-67
2023/11/17 01:07:50;;;;;;;9.00;6.30;;;;;;;9.04;58.00;100028.20;108115;1253;72920;-68
2023/11/17 01:10:17;;;;;;;10.40;7.40;;;;;;;9.05;57.97;100032.02;107986;1253;60314;-67
2023/11/17 01:12:45;;;;;;;11.50;7.40;;;;;;;9.06;58.05;100028.13;107992;1253;59116;-67
2023/11/17 01:15:13;;;;;;;11.20;6.90;;;;;;;9.05;57.99;100029.41;108013;1253;73112;-68
2023/11/17 01:17:42;;;;;;;9.10;7.10;;;;;;;8.99;58.19;100027.11;107989;1253;69410;-68
2023/11/17 01:20:10;;;;;;;10.50;6.30;;;;;;;9.03;57.96;100029.44;107959;1258;71485;-68
2023/11/17 01:22:41;;;;;;;9.10;6.90;;;;;;;8.98;57.92;100025.38;107944;1253;60907;-66
2023/11/17 01:25:08;;;;;;;12.30;7.70;;;;;;;9.01;57.87;100026.52;107999;1253;60373;-67
2023/11/17 01:27:36;;;;;;;9.40;7.10;;;;;;;9.09;57.74;100024.54;108098;1253;72610;-67
2023/11/17 01:30:04;;;;;;;9.40;7.00;;;;;;;9.06;57.84;100023.92;108145;1253;68846;-67
2023/11/17 01:32:32;;;;;;;9.80;7.10;;;;;;;9.07;57.79;100024.95;107990;1255;72654;-68
2023/11/17 01:34:59;;;;;;;15.40;7.40;;;;;;;9.09;57.68;100025.92;108020;1253;61219;-67
2023/11/17 01:37:27;;;;;;;11.10;7.10;;;;;;;8.97;57.86;100026.14;108172;1253;60291;-67
2023/11/17 01:39:54;;;;;;;10.30;6.90;;;;;;;8.87;58.08;100028.02;108135;1253;73074;-67
2023/11/17 01:42:22;;;;;;;10.00;6.50;;;;;;;8.92;57.98;100031.90;107963;1253;70080;-67
2023/11/17 01:44:49;;;;;;;9.40;6.60;;;;;;;8.94;57.85;100031.30;107956;1253;72735;-66
2023/11/17 01:47:20;;;;;;;10.30;7.20;;;;;;;8.94;57.79;100030.07;108144;1253;60423;-67
2023/11/17 01:49:48;;;;;;;;;;;;;;;8.94;57.83;100027.61;108068;1253;60315;-67
2023/11/17 01:52:15;;;;;;;10.60;6.60;;;;;;;8.98;57.59;100025.39;108044;1253;73797;-67
2023/11/17 01:54:46;;;;;;;9.50;7.00;;;;;;;8.99;57.62;100028.50;107904;1253;69405;-67
2023/11/17 01:57:13;;;;;;;8.80;6.00;;;;;;;9.11;57.37;100031.27;107984;1253;71248;-67
2023/11/17 01:59:41;;;;;;;9.50;6.50;;;;;;;9.08;57.32;100032.98;107945;1260;60320;-67
2023/11/17 02:02:09;;;;;;;9.40;6.00;;;;;;;8.65;58.26;100033.62;108109;1253;60560;-67
2023/11/17 02:04:37;;;;;;;9.90;6.40;;;;;;;8.87;57.98;100030.13;107966;1253;73777;-67
2023/11/17 02:07:14;;;;;;;8.90;6.30;;;;;;;8.94;57.64;100023.09;107995;1253;69939;-66
2023/11/17 02:09:47;;;;;;;11.20;7.00;;;;;;;8.91;57.68;100017.21;108044;1253;71423;-67
2023/11/17 02:12:46;;;;;;;11.40;6.40;;;;;;;8.95;57.54;100012.35;108155;1253;60434;-67
2023/11/17 02:15:15;;;;;;;8.00;5.70;;;;;;;8.67;58.00;100008.88;108031;1253;59961;-67
2023/11/17 02:17:44;;;;;;;8.20;5.60;;;;;;;8.63;58.47;100008.65;107961;1253;73869;-66
2023/11/17 02:20:12;;;;;;;10.90;6.40;;;;;;;8.81;58.02;100007.39;108005;1253;70190;-67
2023/11/17 02:22:47;;;;;;;8.30;5.90;;;;;;;9.07;57.33;100011.10;108012;1253;71977;-67
2023/11/17 02:25:32;;;;;;;15.70;6.40;;;;;;;9.08;57.23;100010.89;108030;1256;60399;-67
2023/11/17 02:28:30;;;;;;;7.30;5.40;;;;;;;9.01;57.24;100010.24;108109;1257;59569;-66
2023/11/17 02:30:58;;;;;;;8.40;5.70;;;;;;;9.03;57.15;100010.89;108143;1253;72547;-67
2023/11/17 02:33:25;;;;;;;9.90;5.80;;;;;;;8.95;57.33;100010.44;107916;1253;70057;-67
2023/11/17 02:35:55;;;;;;;9.60;6.50;;;;;;;9.02;57.08;100010.39;108148;1253;72710;-67
2023/11/17 02:38:22;;;;;;;7.00;5.40;;;;;;;9.01;57.22;100015.33;107924;1256;60320;-67
2023/11/17 02:40:55;;;;;;;8.20;6.00;;;;;;;9.13;57.16;100019.13;108074;1252;60314;-68
2023/11/17 02:43:25;;;;;;;8.60;5.80;;;;;;;9.15;56.88;100014.35;108108;1253;72611;-67
2023/11/17 02:45:52;;;;;;;10.40;6.00;;;;;;;9.22;56.86;100007.81;107940;1253;70306;-66
2023/11/17 02:48:22;;;;;;;9.50;5.40;;;;;;;9.21;56.67;100008.18;107953;1253;72582;-67
2023/11/17 02:53:49;;;;;;;9.00;5.70;;;;;;;9.11;56.77;100013.08;108158;1254;60419;-67
2023/11/17 02:56:19;;;;;;;7.40;5.40;;;;;;;9.08;56.82;100012.30;108054;1253;73880;-67
2023/11/17 02:58:47;;;;;;;8.00;5.10;;;;;;;9.02;56.94;100013.89;107921;1260;68840;-66
2023/11/17 03:01:18;;;;;;;7.40;5.10;;;;;;;9.15;56.69;100012.59;107893;1260;71677;-67
2023/11/17 03:03:46;;;;;;;7.70;5.50;;;;;;;9.23;56.41;100010.41;108022;1253;60328;-67
2023/11/17 03:06:14;;;;;;;9.20;5.40;;;;;;;9.28;56.43;100008.29;107939;1253;59749;-67
2023/11/17 03:08:42;;;;;;;9.10;5.70;;;;;;;9.32;56.22;100006.41;108049;1253;72601;-67
2023/11/17 03:11:09;;;;;;;7.70;5.70;;;;;;;9.33;56.08;100007.78;108089;1253;69899;-67
2023/11/17 03:13:37;;;;;;;8.80;5.60;;;;;;;9.47;55.77;100004.34;108074;1253;71188;-67
2023/11/17 03:16:05;;;;;;;8.00;6.30;;;;;;;9.57;55.48;100009.45;107944;1253;60932;-67
2023/11/17 03:18:38;;;;;;;6.80;5.00;;;;;;;9.57;55.22;100012.39;108172;1252;60520;-67
2023/11/17 03:21:06;;;;;;;8.30;5.60;;;;;;;9.65;55.18;100014.55;108165;1253;72905;-67
2023/11/17 03:23:38;;;;;;;9.70;5.80;;;;;;;9.66;55.05;100013.14;108028;1258;69364;-67
2023/11/17 03:26:05;;;;;;;7.80;4.90;;;;;;;9.79;54.96;100012.14;108123;1253;72532;-66
2023/11/17 03:28:35;;;;;;;8.10;6.00;;;;;;;9.83;54.70;100012.70;107967;1253;60441;-67
2023/11/17 03:31:04;;;;;;;6.80;5.50;;;;;;;9.83;54.58;100008.48;108147;1253;60227;-67
2023/11/17 03:33:32;;;;;;;6.80;5.10;;;;;;;9.75;54.76;100010.89;108191;1253;72604;-67
2023/11/17 03:35:59;;;;;;;7.10;5.90;;;;;;;9.77;54.66;100009.42;108169;1253;70082;-67
2023/11/17 03:38:27;;;;;;;9.40;6.50;;;;;;;9.75;54.65;100011.08;107969;1253;72708;-67
2023/11/17 03:40:55;;;;;;;8.10;5.80;;;;;;;9.72;54.63;100013.98;108168;1257;59878;-67
2023/11/17 03:43:22;;;;;;;9.40;6.00;;;;;;;9.65;54.87;100011.06;107979;1253;60441;-67
2023/11/17 03:45:51;;;;;;;8.60;6.50;;;;;;;9.77;54.64;100014.66;108198;1254;73827;-67
2023/11/17 03:48:18;;;;;;;8.10;6.80;;;;;;;9.79;54.40;100016.17;108193;1253;70330;-67
2023/11/17 03:50:48;;;;;;;7.90;6.00;;;;;;;9.72;54.56;100015.91;108104;1254;73066;-67
2023/11/17 03:53:16;;;;;;;11.20;6.00;;;;;;;9.60;54.83;100020.02;107959;1253;60206;-67
2023/11/17 03:55:44;;;;;;;9.10;6.30;;;;;;;9.50;54.93;100019.30;108114;1253;60350;-67
2023/11/17 03:58:11;;;;;;;8.70;6.50;;;;;;;9.44;55.09;100024.23;107936;1253;72593;-67
2023/11/17 04:00:39;;;;;;;9.50;6.50;;;;;;;9.44;55.09;100026.33;107929;1253;70657;-67
2023/11/17 04:03:08;;;;;;;8.00;6.00;;;;;;;9.44;54.97;100023.02;108024;1253;71387;-66
2023/11/17 04:05:37;;;;;;;8.80;6.50;;;;;;;9.55;54.83;100021.58;108016;1253;60434;-67
2023/11/17 04:08:04;;;;;;;9.90;6.80;;;;;;;9.54;54.80;100025.13;107910;1253;60201;-68
2023/11/17 04:10:31;;;;;;;8.50;6.00;;;;;;;9.53;54.63;100024.27;108007;1253;73812;-69
2023/11/17 04:12:59;;;;;;;9.90;7.00;;;;;;;9.67;54.53;100019.95;108023;1258;69539;-68
2023/11/17 04:15:27;;;;;;;9.30;6.50;;;;;;;9.75;54.45;100023.51;108031;1253;71212;-67
2023/11/17 04:17:57;;;;;;;11.30;7.10;;;;;;;9.79;54.52;100028.27;107984;1256;60317;-65
2023/11/17 04:20:25;;;;;;;10.00;7.50;;;;;;;9.85;54.26;100029.11;108045;1253;59920;-67
2023/11/17 04:22:52;;;;;;;10.90;6.30;;;;;;;9.83;54.34;100029.73;108006;1258;74145;-67
2023/11/17 04:25:19;;;;;;;12.80;7.20;;;;;;;9.81;54.34;100026.61;107979;1253;70292;-67
2023/11/17 04:27:47;;;;;;;9.20;6.70;;;;;;;9.78;54.32;100026.04;107981;1253;71680;-67
2023/11/17 04:30:15;;;;;;;8.50;6.50;;;;;;;9.85;54.19;100019.65;107996;1253;60388;-67
2023/11/17 04:32:43;;;;;;;10.70;7.10;;;;;;;9.91;53.97;100021.02;107978;1253;60422;-66
2023/11/17 04:35:11;;;;;;;9.00;6.80;;;;;;;9.84;53.91;100017.23;107975;1253;73907;-66
2023/11/17 04:37:39;;;;;;;9.50;7.10;;;;;;;9.86;54.06;100016.98;107953;1253;69956;-67
2023/11/17 04:40:11;;;;;;;12.10;6.80;;;;;;;9.88;53.92;100013.23;107975;1258;71412;-67
2023/11/17 04:42:39;;;;;;;8.50;6.40;;;;;;;9.80;54.13;100011.58;107965;1254;60282;-67
2023/11/17 04:45:10;;;;;;;11.10;7.10;;;;;;;9.88;54.10;100014.27;107925;1253;60251;-68
2023/11/17 04:47:37;;;;;;;9.50;7.30;;;;;;;9.96;53.76;100016.98;107970;1253;72151;-68
2023/11/17 04:50:08;;;;;;;8.80;5.90;;;;;;;9.99;53.65;100019.16;107928;1253;68878;-67
2023/11/17 04:52:37;;;;;;;9.60;6.40;;;;;;;9.98;53.78;100023.40;107931;1253;72714;-67
2023/11/17 04:55:05;;;;;;;10.10;6.90;;;;;;;9.98;53.67;100020.74;107962;1258;60983;-68
2023/11/17 04:57:34;;;;;;;7.90;6.20;;;;;;;10.05;53.62;100021.55;107989;1253;60358;-67
2023/11/17 05:00:04;;;;;;;10.10;7.00;;;;;;;10.05;53.56;100020.69;107967;1254;71631;-67
2023/11/17 05:02:33;;;;;;;9.70;7.10;;;;;;;10.01;53.78;100020.81;108127;1252;70594;-67
2023/11/17 05:05:01;;;;;;;10.50;6.90;;;;;;;10.13;53.55;100020.58;108108;1253;70634;-67
2023/11/17 05:09:53;;;;;;;10.90;7.30;;;;;;;8.16;59.13;100034.39;104898;1291;600261;-68
2023/11/17 05:12:21;;;;;;;10.80;7.40;;;;;;;8.83;57.18;100032.87;108001;1253;60031;-66
2023/11/17 05:14:50;;;;;;;12.20;7.20;;;;;;;9.12;56.47;100034.57;108005;1253;59240;-66
2023/11/17 05:17:17;;;;;;;11.70;8.00;;;;;;;9.28;55.91;100028.45;108083;1253;72286;-67
2023/11/17 05:19:45;;;;;;;10.90;7.70;;;;;;;9.31;55.78;100027.11;108055;1253;68839;-67
2023/11/17 05:22:14;;;;;;;16.50;7.50;;;;;;;9.24;55.95;100027.89;108023;1253;72651;-67
2023/11/17 05:24:43;;;;;;;11.60;7.40;;;;;;;9.24;56.02;100032.27;108062;1251;164732;-66
2023/11/17 05:27:11;;;;;;;12.00;8.40;;;;;;;9.22;56.13;100033.38;108334;1251;60023;-67
2023/11/17 05:29:38;;;;;;;9.80;6.50;;;;;;;9.25;56.09;100035.55;108218;1250;70970;-67
2023/11/17 05:32:07;;;;;;;12.80;8.00;;;;;;;9.35;55.92;100040.83;108302;1250;70152;-67
2023/11/17 05:34:35;;;;;;;10.60;7.50;;;;;;;9.34;55.78;100043.15;108273;1251;72702;-68
2023/11/17 05:37:02;;;;;;;13.50;7.70;;;;;;;9.29;56.03;100047.52;108276;1255;59609;-67
2023/11/17 05:39:30;;;;;;;9.20;7.20;;;;;;;9.20;56.14;100045.70;108320;1250;60030;-67
2023/11/17 05:41:57;;;;;;;8.80;6.20;;;;;;;9.09;56.62;100047.81;108316;1250;71776;-67
2023/11/17 05:44:25;;;;;;;11.70;8.20;;;;;;;9.12;56.57;100045.80;108196;1250;70486;-67
2023/11/17 05:46:53;;;;;;;11.30;7.10;;;;;;;9.17;56.64;100047.75;108247;1250;71271;-68
2023/11/17 05:49:20;;;;;;;10.60;7.60;;;;;;;9.29;56.54;100053.98;108253;1250;60785;-67
2023/11/17 05:51:48;;;;;;;12.10;8.00;;;;;;;9.34;56.40;100059.61;108262;1250;59378;-67
2023/11/17 05:54:18;;;;;;;9.70;6.20;;;;;;;9.36;56.40;100063.74;108210;1250;72940;-67
2023/11/17 05:56:47;;;;;;;13.70;8.80;;;;;;;9.44;56.25;100063.50;108248;1250;68914;-68
2023/11/17 05:59:14;;;;;;;14.20;8.10;;;;;;;9.45;56.24;100065.02;108289;1250;72624;-68
2023/11/17 06:01:43;;;;;;;13.50;7.80;;;;;;;9.34;56.68;100070.64;108112;1253;60861;-68
2023/11/17 06:04:11;;;;;;;14.10;9.60;;;;;;;9.47;56.43;100079.67;108035;1258;60093;-68
2023/11/17 06:06:39;;;;;;;13.70;7.80;;;;;;;9.52;56.32;100082.00;108017;1253;72017;-68
2023/11/17 06:09:07;;;;;;;14.40;8.70;;;;;;;9.54;56.43;100084.73;108011;1253;70274;-68
2023/11/17 06:11:36;;;;;;;15.70;9.40;;;;;;;9.45;56.48;100088.17;108090;1258;72704;-68
2023/11/17 06:14:04;;;;;;;10.30;7.20;;;;;;;9.48;56.64;100092.27;108026;1253;60923;-68
2023/11/17 06:16:33;;;;;;;13.60;8.50;;;;;;;9.56;56.50;100098.50;108106;1258;59440;-67
2023/11/17 06:19:02;;;;;;;12.40;7.60;;;;;;;9.44;56.70;100100.44;108149;1253;73059;-68
2023/11/17 06:21:30;;;;;;;12.30;7.90;;;;;;;9.52;56.70;100099.15;108131;1253;70518;-68
2023/11/17 06:23:58;;;;;;;11.40;8.10;;;;;;;9.59;56.49;100105.76;108071;1253;72677;-68
2023/11/17 06:26:27;;;;;;;11.90;7.90;;;;;;;9.69;56.09;100104.38;108067;1253;59623;-67
2023/11/17 06:28:57;;;;;;;12.60;8.00;;;;;;;9.62;56.01;100106.36;107942;1253;59076;-67
2023/11/17 06:31:29;;;;;;;14.10;8.50;;;;;;;9.59;56.16;100110.30;107940;1253;72081;-67
2023/11/17 06:33:57;;;;;;;12.60;8.50;;;;;;;9.47;56.39;100112.45;107959;1258;69114;-69
2023/11/17 06:36:24;;;;;;;12.30;8.10;;;;;;;9.61;56.29;100112.19;108067;1254;70825;-67
2023/11/17 06:38:51;;;;;;;10.70;7.00;;;;;;;9.59;56.27;100116.96;107955;1253;61383;-69
2023/11/17 06:41:20;;;;;;;12.60;8.10;;;;;;;9.56;56.45;100118.45;108126;1253;60076;-67
2023/11/17 06:43:47;;;;;;;11.70;7.60;;;;;;;9.61;56.30;100119.88;107862;1253;72002;-67
2023/11/17 06:46:17;;;;;;;13.90;7.40;;;;;;;9.41;56.96;100122.80;108184;1253;68960;-67
2023/11/17 06:48:47;;;;;;;13.60;9.10;;;;;;;9.34;57.30;100127.06;107966;1254;70594;-67
2023/11/17 06:51:14;;;;;;;22.20;9.70;;;;;;;9.20;57.62;100123.83;108134;1253;61608;-66
2023/11/17 06:53:43;;;;;;;21.00;12.80;;;;;;;9.11;57.91;100122.90;108134;1253;59487;-67
2023/11/17 06:56:11;;;;;;;13.40;9.40;;;;;;;9.27;57.52;100119.55;108150;1259;73008;-67
2023/11/17 06:58:38;;;;;;;12.10;8.20;;;;;;;9.30;57.38;100121.74;108080;1253;70091;-67
2023/11/17 07:01:06;;;;;;;13.50;9.10;;;;;;;8.92;58.42;100121.54;108091;1253;72900;-67
2023/11/17 07:03:38;;;;;;;12.40;8.20;;;;;;;8.85;58.49;100119.83;108266;1253;59648;-67
2023/11/17 07:06:06;;;;;;;13.10;8.50;;;;;;;9.07;57.98;100119.67;108005;1253;59709;-67
2023/11/17 07:08:33;;;;;;;21.60;11.60;;;;;;;9.34;57.36;100110.42;108079;1253;72415;-67
2023/11/17 07:11:03;;;;;;;14.20;9.40;;;;;;;9.29;57.17;100108.50;107978;1253;70010;-67
2023/11/17 07:13:31;;;;;;;17.60;10.00;;;;;;;9.29;57.49;100109.35;108202;1253;72482;-67
2023/11/17 07:15:58;;;;;;;13.70;10.20;;;;;;;9.46;56.99;100111.45;108129;1258;59593;-67
2023/11/17 07:18:27;;;;;;;14.20;10.00;;;;;;;9.51;56.97;100112.00;108145;1253;60028;-67
2023/11/17 07:20:55;;;;;;;15.70;9.30;;;;;;;9.51;56.94;100111.63;108212;1253;72091;-67
2023/11/17 07:23:22;;;;;;;18.50;10.30;;;;;;;9.51;57.11;100111.83;108151;1253;70292;-67
2023/11/17 07:25:50;;;;;;;12.30;8.40;;;;;;;9.43;57.23;100111.00;108121;1254;72500;-67
2023/11/17 07:28:17;;;;;;;16.20;9.50;;;;;;;9.50;57.39;100106.41;108061;1253;60836;-67
2023/11/17 07:30:45;;;;;;;15.20;8.80;;;;;;;9.62;57.25;100107.23;108037;1253;60027;-67
2023/11/17 07:33:16;;;;;;;12.90;9.10;;;;;;;9.77;56.89;100111.95;107991;1258;73622;-67
2023/11/17 07:35:44;;;;;;;12.10;8.70;;;;;;;9.80;56.50;100118.71;108072;1253;68766;-66
2023/11/17 07:38:11;;;;;;;12.50;8.20;;;;;;;9.99;56.22;100116.83;108070;1253;71371;-67
2023/11/17 07:40:39;;;;;;;18.10;9.50;;;;;;;9.95;56.32;100116.98;107999;1254;60895;-68
2023/11/17 07:43:07;;;;;;;12.80;9.30;;;;;;;10.05;55.91;100125.04;108078;1253;59549;-68
2023/11/17 07:45:34;;;;;;;14.10;8.20;;;;;;;10.15;55.92;100127.34;108163;1254;73027;-68
2023/11/17 07:48:02;;;;;;;15.90;10.00;;;;;;;10.23;55.63;100126.00;108029;1253;70276;-68
2023/11/17 07:50:30;;;;;;;12.80;8.30;;;;;;;10.19;55.49;100135.09;109212;1254;72757;-68
2023/11/17 07:52:58;;;;;;;15.30;9.80;;;;;;;10.25;55.32;100138.02;109338;1253;61076;-69
2023/11/17 07:55:25;;;;;;;15.00;9.20;;;;;;;10.19;55.20;100141.73;109381;1253;58771;-68
2023/11/17 07:57:56;;;;;;;14.80;9.30;;;;;;;10.11;55.28;100146.41;109209;1253;73021;-69
2023/11/17 08:00:27;;;;;;;13.20;8.80;;;;;;;9.94;55.67;100151.04;109261;1253;69966;-70
2023/11/17 08:05:54;;;;;;;18.50;9.10;;;;;;;10.00;55.65;100152.60;104820;1292;600383;-67
2023/11/17 08:08:22;;;;;;;15.50;9.90;;;;;;;10.02;55.67;100157.80;107231;1266;61164;-67
2023/11/17 08:10:50;;;;;;;12.90;9.30;;;;;;;10.08;55.61;100163.88;107219;1266;60301;-67
2023/11/17 08:13:18;;;;;;;15.50;9.40;;;;;;;10.06;55.68;100165.56;107191;1265;72199;-68
2023/11/17 08:15:48;;;;;;;15.30;9.10;;;;;;;10.04;55.64;100168.77;107178;1266;70515;-66
2023/11/17 08:18:16;;;;;;;15.60;10.20;;;;;;;10.26;55.36;100173.64;107449;1262;70355;-67
2023/11/17 08:20:45;;;;;;;17.30;9.90;;;;;;;10.20;55.46;100174.53;107480;1259;142171;-67
2023/11/17 08:23:14;;;;;;;13.90;9.40;;;;;;;10.20;55.17;100175.92;107574;1261;60692;-67
2023/11/17 08:25:42;;;;;;;16.20;8.90;;;;;;;10.34;54.95;100174.42;107580;1260;71409;-67
2023/11/17 08:28:10;;;;;;;19.70;9.70;;;;;;;10.31;55.18;100178.20;107527;1260;70867;-67
2023/11/17 08:30:40;;;;;;;18.30;9.20;;;;;;;10.56;54.79;100179.79;107517;1260;72689;-67
2023/11/17 08:33:19;;;;;;;15.50;9.50;;;;;;;10.65;54.49;100185.42;107541;1260;59668;-67
2023/11/17 08:35:46;;;;;;;16.00;9.60;;;;;;;10.64;54.30;100188.46;108055;1253;59918;-68
2023/11/17 08:38:15;;;;;;;19.20;10.70;;;;;;;10.62;54.35;100189.40;108000;1253;72134;-67
2023/11/17 08:40:47;;;;;;;15.80;9.70;;;;;;;10.54;54.45;100193.92;108065;1253;70441;-67
2023/11/17 08:43:18;;;;;;;17.00;10.50;;;;;;;10.56;54.41;100195.60;107991;1253;73660;-67
2023/11/17 08:45:52;;;;;;;13.80;8.20;;;;;;;10.36;54.89;100195.23;108040;1252;59789;-67
2023/11/17 08:48:20;;;;;;;16.60;9.50;;;;;;;10.01;55.55;100193.42;108093;1252;59530;-66
2023/11/17 08:50:48;;;;;;;14.00;7.30;;;;;;;9.85;55.69;100199.21;108147;1253;75025;-67
2023/11/17 08:53:16;;;;;;;12.40;7.60;;;;;;;9.91;55.78;100197.09;108058;1253;68203;-67
2023/11/17 08:55:44;;;;;;;20.60;9.60;;;;;;;10.32;54.70;100191.16;108118;1253;72625;-67
2023/11/17 08:58:12;;;;;;;13.30;8.00;;;;;;;10.19;54.97;100188.95;108031;1253;59561;-67
2023/11/17 09:00:40;;;;;;;16.70;9.40;;;;;;;10.14;55.19;100185.27;108031;1253;59462;-67
2023/11/17 09:03:09;;;;;;;16.00;9.40;;;;;;;10.37;54.63;100182.40;108020;1253;72027;-68
2023/11/17 09:05:37;;;;;;;17.30;10.30;;;;;;;10.21;54.93;100181.17;108047;1253;68699;-69
2023/11/17 09:08:07;;;;;;;16.30;9.50;;;;;;;10.27;54.95;100185.02;108011;1253;71356;-67
2023/11/17 09:10:34;;;;;;;13.30;7.10;;;;;;;10.44;54.49;100185.83;107938;1253;59663;-68
2023/11/17 09:13:04;;;;;;;18.80;10.70;;;;;;;10.53;54.38;100183.42;108025;1253;59923;-68
2023/11/17 09:15:35;;;;;;;19.30;9.80;;;;;;;10.51;54.34;100187.14;108094;1253;72997;-67
2023/11/17 09:18:02;;;;;;;15.30;9.70;;;;;;;10.62;54.18;100176.77;108129;1253;68997;-67
2023/11/17 09:20:30;;;;;;;16.80;9.90;;;;;;;10.59;53.92;100182.11;108065;1253;72649;-67
2023/11/17 09:22:57;;;;;;;14.00;9.10;;;;;;;10.52;54.06;100181.69;108047;1253;60921;-68
2023/11/17 09:25:25;;;;;;;15.60;9.70;;;;;;;10.41;54.32;100176.11;108042;1253;59401;-68
2023/11/17 09:27:54;;;;;;;18.90;10.10;;;;;;;10.42;54.34;100176.60;108147;1253;72796;-68
2023/11/17 09:30:21;;;;;;;16.10;9.30;;;;;;;10.24;54.77;100175.27;108113;1253;69009;-69
2023/11/17 09:32:50;;;;;;;17.90;9.70;;;;;;;10.26;54.99;100174.67;108064;1253;73995;-68
2023/11/17 09:35:21;;;;;;;17.50;8.90;;;;;;;10.39;54.70;100171.77;108091;1254;61190;-68
2023/11/17 09:37:53;;;;;;;18.50;9.80;;;;;;;10.40;54.61;100171.74;108086;1253;60012;-68
2023/11/17 09:40:25;;;;;;;19.00;10.50;;;;;;;10.38;54.58;100177.28;108064;1253;73195;-68
2023/11/17 09:42:57;;;;;;;17.00;9.50;;;;;;;10.20;54.88;100172.61;108047;1253;70259;-68
2023/11/17 09:45:26;;;;;;;17.40;9.70;;;;;;;10.00;55.38;100173.45;108124;1253;73070;-67
2023/11/17 09:47:58;;;;;;;16.70;9.40;;;;;;;10.23;54.83;100164.60;108105;1253;62263;-68
2023/11/17 09:50:27;;;;;;;18.10;9.60;;;;;;;10.48;54.09;100166.37;108079;1253;59551;-68
2023/11/17 09:52:57;;;;;;;17.60;9.90;;;;;;;10.47;54.18;100163.78;108123;1253;73291;-68
2023/11/17 09:55:30;;;;;;;15.50;9.60;;;;;;;10.76;53.47;100167.13;107954;1253;69923;-67
2023/11/17 09:58:02;;;;;;;21.00;11.30;;;;;;;10.73;53.24;100170.04;108031;1253;72664;-67
2023/11/17 10:00:36;;;;;;;19.40;10.90;;;;;;;10.55;53.66;100165.76;107992;1253;60877;-67
2023/11/17 10:03:05;;;;;;;16.20;10.00;;;;;;;10.63;53.59;100165.48;108030;1253;59482;-68
2023/11/17 10:05:33;;;;;;;17.50;10.00;;;;;;;10.68;53.55;100165.11;108034;1253;73059;-67
2023/11/17 10:08:14;;;;;;;17.30;10.80;;;;;;;10.82;53.45;100163.73;108060;1253;69044;-68
2023/11/17 10:10:46;;;;;;;18.90;9.80;;;;;;;10.85;53.29;100164.50;108090;1253;71568;-68
2023/11/17 10:13:16;;;;;;;18.70;9.60;;;;;;;10.73;53.67;100167.75;108058;1253;61077;-67
2023/11/17 10:15:51;;;;;;;15.20;9.40;;;;;;;10.66;54.02;100166.96;108100;1253;59224;-67
2023/11/17 10:18:25;;;;;;;20.90;10.80;;;;;;;10.76;53.92;100166.58;108025;1253;74307;-67
2023/11/17 10:20:54;;;;;;;20.20;10.60;;;;;;;10.86;53.67;100166.39;108047;1253;69833;-67
2023/11/17 10:23:22;;;;;;;18.80;10.30;;;;;;;10.90;53.48;100168.70;108007;1253;74169;-68
2023/11/17 10:25:54;;;;;;;20.30;11.10;;;;;;;10.91;53.50;100168.84;108045;1252;60951;-68
2023/11/17 10:28:24;;;;;;;16.10;9.60;;;;;;;10.94;53.51;100169.79;108050;1253;60286;-68
2023/11/17 10:30:56;;;;;;;17.50;9.50;;;;;;;10.98;53.43;100168.03;108060;1253;73057;-68
2023/11/17 10:33:29;;;;;;;23.70;12.30;;;;;;;10.98;53.44;100164.87;108006;1253;71344;-68
2023/11/17 10:36:04;;;;;;;24.20;13.70;;;;;;;11.00;53.34;100161.48;107976;1253;72874;-67
2023/11/17 10:38:34;;;;;;;23.70;12.80;;;;;;;10.87;53.49;100161.80;108071;1253;62287;-68
2023/11/17 10:41:11;;;;;;;23.20;13.10;;;;;;;10.97;53.17;100162.29;108120;1253;60341;-67
2023/11/17 10:43:47;;;;;;;22.60;12.20;;;;;;;10.98;53.09;100159.07;108052;1253;73137;-67
2023/11/17 10:46:19;;;;;;;15.80;9.40;;;;;;;11.04;52.92;100157.09;108078;1257;70308;-67
2023/11/17 10:48:50;;;;;;;20.20;12.30;;;;;;;11.09;52.79;100155.15;108099;1253;72831;-68
2023/11/17 10:51:18;;;;;;;21.80;12.10;;;;;;;11.07;52.87;100155.76;108096;1253;59933;-67
2023/11/17 10:54:04;;;;;;;18.30;10.30;;;;;;;11.12;52.86;100154.33;108109;1253;59599;-67
2023/11/17 10:56:33;;;;;;;22.40;11.80;;;;;;;11.11;52.93;100158.04;108044;1253;73153;-67
2023/11/17 10:59:02;;;;;;;16.30;9.40;;;;;;;11.09;53.08;100158.66;108091;1257;70313;-68
2023/11/17 11:01:31;;;;;;;18.10;10.90;;;;;;;11.08;53.22;100160.44;108098;1257;72675;-67
2023/11/17 11:04:02;;;;;;;19.50;11.00;;;;;;;11.10;53.24;100159.84;108091;1253;60145;-67
2023/11/17 11:06:31;;;;;;;22.30;11.70;;;;;;;11.19;52.92;100160.38;108157;1253;60048;-67
2023/11/17 11:09:03;;;;;;;22.20;12.80;;;;;;;11.25;52.79;100161.55;108096;1253;72839;-67
2023/11/17 11:11:30;;;;;;;24.10;11.60;;;;;;;11.16;52.94;100162.80;108077;1253;68481;-67
2023/11/17 11:14:02;;;;;;;20.80;12.30;;;;;;;11.12;53.15;100163.45;108078;1253;72792;-68
2023/11/17 11:16:33;;;;;;;21.80;11.50;;;;;;;11.07;53.29;100165.56;108043;1253;59613;-67
2023/11/17 11:19:02;;;;;;;18.00;10.40;;;;;;;11.09;53.20;100162.16;108004;1253;59481;-67
2023/11/17 11:21:33;;;;;;;20.30;11.10;;;;;;;11.17;53.17;100164.70;108045;1253;75524;-68
2023/11/17 11:24:04;;;;;;;20.00;11.90;;;;;;;11.20;53.09;100163.35;107879;1253;69346;-67
2023/11/17 11:26:32;;;;;;;14.60;8.50;;;;;;;11.14;53.05;100167.25;107870;1253;72765;-68
2023/11/17 11:29:01;;;;;;;21.70;11.20;;;;;;;11.28;52.90;100169.19;108059;1253;61254;-68
2023/11/17 11:31:30;;;;;;;17.00;9.80;;;;;;;11.13;53.09;100169.23;108025;1254;60025;-68
2023/11/17 11:33:58;;;;;;;21.80;11.60;;;;;;;11.02;53.45;100172.63;107917;1253;73088;-67